sensor_id;sensor_type;location;lat;lon;timestamp;pressure;altitude;pressure_sealevel;temperature;humidity
4410;BME280;2218;51.408;7.208;2023-12-20T00:01:57;99566.75;;;19.59;43.65
4410;BME280;2218;51.408;7.208;2023-12-20T00:04:25;99573.00;;;19.58;43.54
4410;BME280;2218;51.408;7.208;2023-12-20T00:06:52;99566.03;;;19.57;43.46
4410;BME280;2218;51.408;7.208;2023-12-20T00:09:19;99573.13;;;19.56;43.53
4410;BME280;2218;51.408;7.208;2023-12-20T00:11:46;99571.44;;;19.55;43.56
4410;BME280;2218;51.408;7.208;2023-12-20T00:14:14;99579.34;;;19.55;43.62
4410;BME280;2218;51.408;7.208;2023-12-20T00:16:41;99575.13;;;19.53;43.69
4410;BME280;2218;51.408;7.208;2023-12-20T00:19:08;99575.13;;;19.53;43.80
4410;BME280;2218;51.408;7.208;2023-12-20T00:21:35;99567.34;;;19.51;43.67
4410;BME280;2218;51.408;7.208;2023-12-20T00:24:03;99563.84;;;19.51;43.65
4410;BME280;2218;51.408;7.208;2023-12-20T00:26:30;99569.13;;;19.51;43.73
4410;BME280;2218;51.408;7.208;2023-12-20T00:28:57;99573.66;;;19.49;43.68
4410;BME280;2218;51.408;7.208;2023-12-20T00:31:25;99575.44;;;19.48;43.66
4410;BME280;2218;51.408;7.208;2023-12-20T00:33:52;99578.22;;;19.47;43.76
4410;BME280;2218;51.408;7.208;2023-12-20T00:36:19;99591.38;;;19.47;43.57
4410;BME280;2218;51.408;7.208;2023-12-20T00:38:45;99593.19;;;19.46;43.94
4410;BME280;2218;51.408;7.208;2023-12-20T00:41:13;99593.31;;;19.45;43.59
4410;BME280;2218;51.408;7.208;2023-12-20T00:43:40;99585.47;;;19.43;43.81
4410;BME280;2218;51.408;7.208;2023-12-20T00:46:08;99596.88;;;19.44;43.78
4410;BME280;2218;51.408;7.208;2023-12-20T00:48:36;99590.88;;;19.42;43.89
4410;BME280;2218;51.408;7.208;2023-12-20T00:51:04;99606.69;;;19.42;43.98
4410;BME280;2218;51.408;7.208;2023-12-20T00:53:30;99608.47;;;19.41;43.45
4410;BME280;2218;51.408;7.208;2023-12-20T00:55:57;99608.59;;;19.40;43.86
4410;BME280;2218;51.408;7.208;2023-12-20T00:58:25;99621.78;;;19.40;43.63
4410;BME280;2218;51.408;7.208;2023-12-20T01:00:52;99618.28;;;19.39;43.65
4410;BME280;2218;51.408;7.208;2023-12-20T01:03:19;99615.75;;;19.37;43.90
4410;BME280;2218;51.408;7.208;2023-12-20T01:05:47;99620.31;;;19.35;43.64
4410;BME280;2218;51.408;7.208;2023-12-20T01:08:14;99616.84;;;19.35;44.30
4410;BME280;2218;51.408;7.208;2023-12-20T01:10:41;99624.75;;;19.35;43.86
4410;BME280;2218;51.408;7.208;2023-12-20T01:13:08;99627.47;;;19.33;43.87
4410;BME280;2218;51.408;7.208;2023-12-20T01:15:35;99624.81;;;19.33;43.83
4410;BME280;2218;51.408;7.208;2023-12-20T01:18:04;99623.16;;;19.32;43.81
4410;BME280;2218;51.408;7.208;2023-12-20T01:20:31;99609.13;;;19.32;43.64
4410;BME280;2218;51.408;7.208;2023-12-20T01:22:59;99607.44;;;19.31;43.73
4410;BME280;2218;51.408;7.208;2023-12-20T01:25:27;99611.03;;;19.30;43.91
4410;BME280;2218;51.408;7.208;2023-12-20T01:27:54;99615.47;;;19.29;43.58
4410;BME280;2218;51.408;7.208;2023-12-20T01:30:21;99612.09;;;19.27;43.60
4410;BME280;2218;51.408;7.208;2023-12-20T01:32:48;99621.78;;;19.27;43.90
4410;BME280;2218;51.408;7.208;2023-12-20T01:35:15;99620.13;;;19.26;43.77
4410;BME280;2218;51.408;7.208;2023-12-20T01:37:41;99621.91;;;19.25;43.83
4410;BME280;2218;51.408;7.208;2023-12-20T01:40:10;99628.09;;;19.24;43.71
4410;BME280;2218;51.408;7.208;2023-12-20T01:42:37;99628.09;;;19.24;43.83
4410;BME280;2218;51.408;7.208;2023-12-20T01:45:05;99643.91;;;19.24;43.73
4410;BME280;2218;51.408;7.208;2023-12-20T01:47:32;99636.13;;;19.23;43.76
4410;BME280;2218;51.408;7.208;2023-12-20T01:50:00;99635.28;;;19.22;43.89
4410;BME280;2218;51.408;7.208;2023-12-20T01:52:30;99634.44;;;19.22;43.67
4410;BME280;2218;51.408;7.208;2023-12-20T01:54:58;99633.72;;;19.20;43.81
4410;BME280;2218;51.408;7.208;2023-12-20T01:57:30;99632.84;;;19.19;43.67
4410;BME280;2218;51.408;7.208;2023-12-20T01:59:58;99636.34;;;19.20;43.78
4410;BME280;2218;51.408;7.208;2023-12-20T02:02:27;99633.81;;;19.18;43.68
4410;BME280;2218;51.408;7.208;2023-12-20T02:04:54;99632.13;;;19.17;43.41
4410;BME280;2218;51.408;7.208;2023-12-20T02:07:22;99623.38;;;19.17;43.67
4410;BME280;2218;51.408;7.208;2023-12-20T02:09:50;99633.09;;;19.16;43.52
4410;BME280;2218;51.408;7.208;2023-12-20T02:12:18;99634.03;;;19.15;43.35
4410;BME280;2218;51.408;7.208;2023-12-20T02:14:46;99630.56;;;19.15;43.47
4410;BME280;2218;51.408;7.208;2023-12-20T02:17:13;99630.66;;;19.13;43.60
4410;BME280;2218;51.408;7.208;2023-12-20T02:19:41;99631.63;;;19.12;43.56
4410;BME280;2218;51.408;7.208;2023-12-20T02:22:10;99627.31;;;19.11;43.50
4410;BME280;2218;51.408;7.208;2023-12-20T02:24:38;99625.50;;;19.11;43.40
4410;BME280;2218;51.408;7.208;2023-12-20T02:27:07;99627.41;;;19.09;43.30
4410;BME280;2218;51.408;7.208;2023-12-20T02:29:35;99627.50;;;19.08;43.48
4410;BME280;2218;51.408;7.208;2023-12-20T02:32:04;99622.22;;;19.08;43.48
4410;BME280;2218;51.408;7.208;2023-12-20T02:34:31;99618.75;;;19.07;43.51
4410;BME280;2218;51.408;7.208;2023-12-20T02:36:58;99625.81;;;19.07;43.49
4410;BME280;2218;51.408;7.208;2023-12-20T02:39:26;99626.66;;;19.07;43.41
4410;BME280;2218;51.408;7.208;2023-12-20T02:41:53;99623.91;;;19.09;43.14
4410;BME280;2218;51.408;7.208;2023-12-20T02:44:20;99624.66;;;19.11;43.04
4410;BME280;2218;51.408;7.208;2023-12-20T02:46:47;99630.56;;;19.15;43.12
4410;BME280;2218;51.408;7.208;2023-12-20T02:49:14;99624.94;;;19.19;43.10
4410;BME280;2218;51.408;7.208;2023-12-20T02:51:41;99624.75;;;19.22;42.90
4410;BME280;2218;51.408;7.208;2023-12-20T02:54:08;99617.56;;;19.24;42.77
4410;BME280;2218;51.408;7.208;2023-12-20T02:56:37;99620.94;;;19.26;42.64
4410;BME280;2218;51.408;7.208;2023-12-20T02:59:04;99625.25;;;19.27;42.75
4410;BME280;2218;51.408;7.208;2023-12-20T03:01:34;99629.56;;;19.28;42.61
4410;BME280;2218;51.408;7.208;2023-12-20T03:04:01;99629.56;;;19.28;42.70
4410;BME280;2218;51.408;7.208;2023-12-20T03:06:28;99632.97;;;19.30;42.57
4410;BME280;2218;51.408;7.208;2023-12-20T03:08:56;99626.84;;;19.30;42.50
4410;BME280;2218;51.408;7.208;2023-12-20T03:11:26;99633.81;;;19.31;42.76
4410;BME280;2218;51.408;7.208;2023-12-20T03:13:55;99625.91;;;19.31;42.57
4410;BME280;2218;51.408;7.208;2023-12-20T03:16:22;99624.09;;;19.31;42.58
4410;BME280;2218;51.408;7.208;2023-12-20T03:18:49;99629.25;;;19.33;42.56
4410;BME280;2218;51.408;7.208;2023-12-20T03:21:16;99625.78;;;19.32;42.40
4410;BME280;2218;51.408;7.208;2023-12-20T03:23:43;99625.78;;;19.32;42.34
4410;BME280;2218;51.408;7.208;2023-12-20T03:26:10;99621.34;;;19.33;42.41
4410;BME280;2218;51.408;7.208;2023-12-20T03:28:37;99615.25;;;19.32;42.59
4410;BME280;2218;51.408;7.208;2023-12-20T03:31:05;99613.44;;;19.33;42.45
4410;BME280;2218;51.408;7.208;2023-12-20T03:33:33;99622.19;;;19.33;42.56
4410;BME280;2218;51.408;7.208;2023-12-20T03:35:59;99624.81;;;19.33;42.43
4410;BME280;2218;51.408;7.208;2023-12-20T03:38:26;99631.81;;;19.34;42.32
4410;BME280;2218;51.408;7.208;2023-12-20T03:40:53;99618.63;;;19.34;42.33
4410;BME280;2218;51.408;7.208;2023-12-20T03:43:20;99618.63;;;19.34;42.15
4410;BME280;2218;51.408;7.208;2023-12-20T03:45:48;99608.94;;;19.35;42.04
4410;BME280;2218;51.408;7.208;2023-12-20T03:48:17;99610.72;;;19.34;42.08
4410;BME280;2218;51.408;7.208;2023-12-20T03:50:43;99597.56;;;19.34;42.27
4410;BME280;2218;51.408;7.208;2023-12-20T03:53:10;99602.81;;;19.34;41.98
4410;BME280;2218;51.408;7.208;2023-12-20T03:55:37;99605.44;;;19.34;42.15
4410;BME280;2218;51.408;7.208;2023-12-20T03:58:04;99610.59;;;19.36;42.29
4410;BME280;2218;51.408;7.208;2023-12-20T04:00:31;99615.88;;;19.36;42.06
4410;BME280;2218;51.408;7.208;2023-12-20T04:02:58;99619.34;;;19.36;41.96
4410;BME280;2218;51.408;7.208;2023-12-20T04:05:27;99615.03;;;19.35;42.21
4410;BME280;2218;51.408;7.208;2023-12-20T04:07:54;99615.03;;;19.35;42.09
4410;BME280;2218;51.408;7.208;2023-12-20T04:10:21;99604.38;;;19.37;42.15
4410;BME280;2218;51.408;7.208;2023-12-20T04:12:48;99599.22;;;19.35;42.04
4410;BME280;2218;51.408;7.208;2023-12-20T04:15:15;99611.44;;;19.36;42.04
4410;BME280;2218;51.408;7.208;2023-12-20T04:17:42;99604.50;;;19.35;42.41
4410;BME280;2218;51.408;7.208;2023-12-20T04:20:10;99607.84;;;19.37;41.79
4410;BME280;2218;51.408;7.208;2023-12-20T04:22:38;99618.38;;;19.37;42.00
4410;BME280;2218;51.408;7.208;2023-12-20T04:25:06;99614.06;;;19.36;41.81
4410;BME280;2218;51.408;7.208;2023-12-20T04:27:33;99598.25;;;19.36;41.75
4410;BME280;2218;51.408;7.208;2023-12-20T04:30:00;99602.59;;;19.37;41.87
4410;BME280;2218;51.408;7.208;2023-12-20T04:32:27;99608.69;;;19.38;41.89
4410;BME280;2218;51.408;7.208;2023-12-20T04:34:54;99600.91;;;19.36;41.84
4410;BME280;2218;51.408;7.208;2023-12-20T04:37:20;99606.91;;;19.38;41.74
4410;BME280;2218;51.408;7.208;2023-12-20T04:39:48;99603.41;;;19.38;41.69
4410;BME280;2218;51.408;7.208;2023-12-20T04:42:16;99599.94;;;19.37;41.63
4410;BME280;2218;51.408;7.208;2023-12-20T04:44:43;99611.31;;;19.38;41.93
4410;BME280;2218;51.408;7.208;2023-12-20T04:47:10;99619.22;;;19.38;41.81
4410;BME280;2218;51.408;7.208;2023-12-20T04:49:37;99617.44;;;19.38;41.72
4410;BME280;2218;51.408;7.208;2023-12-20T04:52:05;99611.31;;;19.38;41.60
4410;BME280;2218;51.408;7.208;2023-12-20T04:54:32;99613.88;;;19.40;41.53
4410;BME280;2218;51.408;7.208;2023-12-20T04:57:00;99605.09;;;19.39;41.53
4410;BME280;2218;51.408;7.208;2023-12-20T04:59:27;99604.25;;;19.38;41.57
4410;BME280;2218;51.408;7.208;2023-12-20T05:01:54;99618.38;;;19.37;41.44
4410;BME280;2218;51.408;7.208;2023-12-20T05:04:21;99617.44;;;19.38;41.55
4410;BME280;2218;51.408;7.208;2023-12-20T05:06:49;99626.09;;;19.41;41.57
4410;BME280;2218;51.408;7.208;2023-12-20T05:09:16;99623.47;;;19.41;41.35
4410;BME280;2218;51.408;7.208;2023-12-20T05:11:43;99619.97;;;19.40;41.61
4410;BME280;2218;51.408;7.208;2023-12-20T05:14:11;99617.22;;;19.42;41.56
4410;BME280;2218;51.408;7.208;2023-12-20T05:16:38;99627.66;;;19.43;41.12
4410;BME280;2218;51.408;7.208;2023-12-20T05:19:05;99624.81;;;19.46;41.28
4410;BME280;2218;51.408;7.208;2023-12-20T05:21:33;99617.75;;;19.47;41.41
4410;BME280;2218;51.408;7.208;2023-12-20T05:24:00;99619.41;;;19.48;41.30
4410;BME280;2218;51.408;7.208;2023-12-20T05:26:27;99624.59;;;19.49;41.12
4410;BME280;2218;51.408;7.208;2023-12-20T05:28:55;99626.28;;;19.50;41.38
4410;BME280;2218;51.408;7.208;2023-12-20T05:31:24;99619.22;;;19.51;41.39
4410;BME280;2218;51.408;7.208;2023-12-20T05:33:51;99623.53;;;19.52;41.11
4410;BME280;2218;51.408;7.208;2023-12-20T05:36:18;99626.16;;;19.52;41.26
4410;BME280;2218;51.408;7.208;2023-12-20T05:38:45;99625.19;;;19.53;40.98
4410;BME280;2218;51.408;7.208;2023-12-20T05:41:12;99627.75;;;19.54;41.03
4410;BME280;2218;51.408;7.208;2023-12-20T05:43:40;99622.34;;;19.56;41.14
4410;BME280;2218;51.408;7.208;2023-12-20T05:46:09;99618.75;;;19.57;40.96
4410;BME280;2218;51.408;7.208;2023-12-20T05:48:38;99620.44;;;19.58;41.07
4410;BME280;2218;51.408;7.208;2023-12-20T05:51:05;99617.81;;;19.58;41.18
4410;BME280;2218;51.408;7.208;2023-12-20T05:53:32;99612.47;;;19.59;40.89
4410;BME280;2218;51.408;7.208;2023-12-20T05:55:59;99614.16;;;19.60;40.91
4410;BME280;2218;51.408;7.208;2023-12-20T05:58:26;99613.19;;;19.61;40.67
4410;BME280;2218;51.408;7.208;2023-12-20T06:00:53;99615.72;;;19.63;40.86
4410;BME280;2218;51.408;7.208;2023-12-20T06:03:20;99618.34;;;19.63;40.76
4410;BME280;2218;51.408;7.208;2023-12-20T06:05:48;99617.38;;;19.64;40.82
4410;BME280;2218;51.408;7.208;2023-12-20T06:08:15;99616.47;;;19.65;40.66
4410;BME280;2218;51.408;7.208;2023-12-20T06:10:42;99615.63;;;19.65;40.56
4410;BME280;2218;51.408;7.208;2023-12-20T06:13:09;99619.09;;;19.65;40.83
4410;BME280;2218;51.408;7.208;2023-12-20T06:15:38;99617.31;;;19.66;40.57
4410;BME280;2218;51.408;7.208;2023-12-20T06:18:05;99612.75;;;19.68;40.63
4410;BME280;2218;51.408;7.208;2023-12-20T06:20:33;99619.81;;;19.67;40.54
4410;BME280;2218;51.408;7.208;2023-12-20T06:23:02;99625.84;;;19.69;40.62
4410;BME280;2218;51.408;7.208;2023-12-20T06:25:29;99627.59;;;19.69;40.50
4410;BME280;2218;51.408;7.208;2023-12-20T06:27:56;99624.03;;;19.70;40.46
4410;BME280;2218;51.408;7.208;2023-12-20T06:30:22;99627.41;;;19.72;40.47
4410;BME280;2218;51.408;7.208;2023-12-20T06:32:51;99622.13;;;19.72;40.44
4410;BME280;2218;51.408;7.208;2023-12-20T06:35:18;99615.06;;;19.72;40.62
4410;BME280;2218;51.408;7.208;2023-12-20T06:37:45;99615.06;;;19.72;40.59
4410;BME280;2218;51.408;7.208;2023-12-20T06:40:13;99614.09;;;19.73;40.38
4410;BME280;2218;51.408;7.208;2023-12-20T06:42:41;99619.28;;;19.75;40.47
4410;BME280;2218;51.408;7.208;2023-12-20T06:45:10;99618.31;;;19.76;40.10
4410;BME280;2218;51.408;7.208;2023-12-20T06:47:37;99629.69;;;19.76;40.16
4410;BME280;2218;51.408;7.208;2023-12-20T06:50:05;99633.91;;;19.79;40.42
4410;BME280;2218;51.408;7.208;2023-12-20T06:52:34;99637.41;;;19.79;40.35
4410;BME280;2218;51.408;7.208;2023-12-20T06:55:01;99634.66;;;19.81;40.31
4410;BME280;2218;51.408;7.208;2023-12-20T06:57:31;99632.00;;;19.81;39.85
4410;BME280;2218;51.408;7.208;2023-12-20T06:59:57;99629.25;;;19.82;39.97
4410;BME280;2218;51.408;7.208;2023-12-20T07:02:24;99630.72;;;19.86;40.07
4410;BME280;2218;51.408;7.208;2023-12-20T07:04:55;99632.31;;;19.89;39.87
4410;BME280;2218;51.408;7.208;2023-12-20T07:07:22;99617.19;;;19.91;39.78
4410;BME280;2218;51.408;7.208;2023-12-20T07:09:49;99620.53;;;19.93;39.44
4410;BME280;2218;51.408;7.208;2023-12-20T07:12:16;99624.78;;;19.96;39.71
4410;BME280;2218;51.408;7.208;2023-12-20T07:14:46;99618.66;;;19.95;39.35
4410;BME280;2218;51.408;7.208;2023-12-20T07:17:13;99616.00;;;19.95;39.48
4410;BME280;2218;51.408;7.208;2023-12-20T07:19:41;99618.66;;;19.95;39.46
4410;BME280;2218;51.408;7.208;2023-12-20T07:22:08;99610.50;;;19.98;39.50
4410;BME280;2218;51.408;7.208;2023-12-20T07:24:35;99618.41;;;19.98;39.46
4410;BME280;2218;51.408;7.208;2023-12-20T07:27:03;99614.84;;;19.99;39.05
4410;BME280;2218;51.408;7.208;2023-12-20T07:29:29;99612.09;;;20.01;39.14
4410;BME280;2218;51.408;7.208;2023-12-20T07:31:58;99618.19;;;20.01;39.09
4410;BME280;2218;51.408;7.208;2023-12-20T07:34:25;99617.09;;;20.04;39.02
4410;BME280;2218;51.408;7.208;2023-12-20T07:36:52;99617.72;;;20.07;39.11
4410;BME280;2218;51.408;7.208;2023-12-20T07:39:20;99615.94;;;20.08;39.28
4410;BME280;2218;51.408;7.208;2023-12-20T07:41:46;99630.94;;;20.07;39.08
4410;BME280;2218;51.408;7.208;2023-12-20T07:44:13;99622.78;;;20.10;39.36
4410;BME280;2218;51.408;7.208;2023-12-20T07:46:41;99628.06;;;20.10;38.83
4410;BME280;2218;51.408;7.208;2023-12-20T07:49:09;99613.28;;;20.08;38.49
4410;BME280;2218;51.408;7.208;2023-12-20T07:51:36;99613.28;;;20.08;38.57
4410;BME280;2218;51.408;7.208;2023-12-20T07:54:03;99610.56;;;20.09;38.60
4410;BME280;2218;51.408;7.208;2023-12-20T07:56:30;99606.13;;;20.10;38.58
4410;BME280;2218;51.408;7.208;2023-12-20T07:58:57;99613.09;;;20.11;38.39
4410;BME280;2218;51.408;7.208;2023-12-20T08:01:24;99606.13;;;20.10;38.92
4410;BME280;2218;51.408;7.208;2023-12-20T08:03:51;99611.41;;;20.10;39.05
4410;BME280;2218;51.408;7.208;2023-12-20T08:06:19;99601.81;;;20.09;39.00
4410;BME280;2218;51.408;7.208;2023-12-20T08:08:46;99604.44;;;20.09;39.05
4410;BME280;2218;51.408;7.208;2023-12-20T08:11:14;99589.22;;;20.12;38.97
4410;BME280;2218;51.408;7.208;2023-12-20T08:13:41;99605.88;;;20.13;38.91
4410;BME280;2218;51.408;7.208;2023-12-20T08:16:08;99597.97;;;20.13;38.94
4410;BME280;2218;51.408;7.208;2023-12-20T08:18:35;99615.50;;;20.14;39.02
4410;BME280;2218;51.408;7.208;2023-12-20T08:21:02;99612.88;;;20.14;38.93
4410;BME280;2218;51.408;7.208;2023-12-20T08:23:31;99609.25;;;20.15;39.19
4410;BME280;2218;51.408;7.208;2023-12-20T08:25:58;99621.50;;;20.16;38.74
4410;BME280;2218;51.408;7.208;2023-12-20T08:28:29;99603.75;;;20.18;38.89
4410;BME280;2218;51.408;7.208;2023-12-20T08:30:56;99601.59;;;20.23;38.96
4410;BME280;2218;51.408;7.208;2023-12-20T08:33:24;99598.53;;;20.29;38.96
4410;BME280;2218;51.408;7.208;2023-12-20T08:35:51;99601.25;;;20.28;38.80
4410;BME280;2218;51.408;7.208;2023-12-20T08:38:18;99609.16;;;20.28;38.79
4410;BME280;2218;51.408;7.208;2023-12-20T08:40:46;99621.31;;;20.30;38.61
4410;BME280;2218;51.408;7.208;2023-12-20T08:43:14;99615.28;;;20.28;38.26
4410;BME280;2218;51.408;7.208;2023-12-20T08:45:41;99608.34;;;20.27;38.50
4410;BME280;2218;51.408;7.208;2023-12-20T08:48:08;99611.81;;;20.28;38.60
4410;BME280;2218;51.408;7.208;2023-12-20T08:50:35;99616.03;;;20.30;38.65
4410;BME280;2218;51.408;7.208;2023-12-20T08:53:03;99609.78;;;20.31;38.55
4410;BME280;2218;51.408;7.208;2023-12-20T08:55:30;99610.50;;;20.33;37.88
4410;BME280;2218;51.408;7.208;2023-12-20T08:57:59;99607.03;;;20.33;38.20
4410;BME280;2218;51.408;7.208;2023-12-20T09:00:26;99597.56;;;20.30;38.56
4410;BME280;2218;51.408;7.208;2023-12-20T09:02:53;99608.13;;;20.30;38.47
4410;BME280;2218;51.408;7.208;2023-12-20T09:05:20;99606.44;;;20.29;38.66
4410;BME280;2218;51.408;7.208;2023-12-20T09:07:48;99606.31;;;20.31;38.61
4410;BME280;2218;51.408;7.208;2023-12-20T09:10:14;99608.13;;;20.30;38.45
4410;BME280;2218;51.408;7.208;2023-12-20T09:12:42;99607.16;;;20.31;38.40
4410;BME280;2218;51.408;7.208;2023-12-20T09:15:10;99595.63;;;20.32;38.37
4410;BME280;2218;51.408;7.208;2023-12-20T09:17:37;99585.06;;;20.32;38.41
4410;BME280;2218;51.408;7.208;2023-12-20T09:20:05;99577.16;;;20.32;38.57
4410;BME280;2218;51.408;7.208;2023-12-20T09:22:33;99577.06;;;20.34;38.56
4410;BME280;2218;51.408;7.208;2023-12-20T09:25:03;99580.53;;;20.34;38.45
4410;BME280;2218;51.408;7.208;2023-12-20T09:27:30;99574.31;;;20.35;38.40
4410;BME280;2218;51.408;7.208;2023-12-20T09:29:57;99590.13;;;20.35;38.48
4410;BME280;2218;51.408;7.208;2023-12-20T09:32:26;99581.38;;;20.35;38.62
4410;BME280;2218;51.408;7.208;2023-12-20T09:34:53;99589.28;;;20.35;38.58
4410;BME280;2218;51.408;7.208;2023-12-20T09:37:20;99592.53;;;20.38;38.75
4410;BME280;2218;51.408;7.208;2023-12-20T09:39:47;99597.81;;;20.38;38.63
4410;BME280;2218;51.408;7.208;2023-12-20T09:42:21;99593.47;;;20.37;38.63
4410;BME280;2218;51.408;7.208;2023-12-20T09:44:51;99596.88;;;20.39;38.68
4410;BME280;2218;51.408;7.208;2023-12-20T09:47:22;99579.31;;;20.38;38.50
4410;BME280;2218;51.408;7.208;2023-12-20T09:49:52;99583.41;;;20.43;38.52
4410;BME280;2218;51.408;7.208;2023-12-20T09:52:19;99587.16;;;20.40;38.48
4410;BME280;2218;51.408;7.208;2023-12-20T09:54:52;99586.31;;;20.39;38.46
4410;BME280;2218;51.408;7.208;2023-12-20T09:57:21;99579.09;;;20.42;38.92
4410;BME280;2218;51.408;7.208;2023-12-20T09:59:48;99586.06;;;20.43;38.84
4410;BME280;2218;51.408;7.208;2023-12-20T10:02:20;99576.13;;;20.46;38.65
4410;BME280;2218;51.408;7.208;2023-12-20T10:04:52;99578.66;;;20.48;38.53
4410;BME280;2218;51.408;7.208;2023-12-20T10:07:19;99579.50;;;20.48;38.51
4410;BME280;2218;51.408;7.208;2023-12-20T10:09:48;99572.31;;;20.50;38.49
4410;BME280;2218;51.408;7.208;2023-12-20T10:12:17;99589.97;;;20.50;38.54
4410;BME280;2218;51.408;7.208;2023-12-20T10:14:44;99589.31;;;20.46;38.62
4410;BME280;2218;51.408;7.208;2023-12-20T10:17:11;99589.44;;;20.45;38.64
4410;BME280;2218;51.408;7.208;2023-12-20T10:19:38;99578.88;;;20.45;38.72
4410;BME280;2218;51.408;7.208;2023-12-20T10:22:07;99583.31;;;20.44;38.50
4410;BME280;2218;51.408;7.208;2023-12-20T10:24:33;99571.91;;;20.44;38.40
4410;BME280;2218;51.408;7.208;2023-12-20T10:27:04;99573.59;;;20.45;38.49
4410;BME280;2218;51.408;7.208;2023-12-20T10:29:33;99584.16;;;20.45;38.35
4410;BME280;2218;51.408;7.208;2023-12-20T10:32:22;99584.16;;;20.45;38.29
4410;BME280;2218;51.408;7.208;2023-12-20T10:34:50;99575.19;;;20.47;38.53
4410;BME280;2218;51.408;7.208;2023-12-20T10:37:18;99573.38;;;20.48;38.70
4410;BME280;2218;51.408;7.208;2023-12-20T10:39:50;99577.59;;;20.50;38.28
4410;BME280;2218;51.408;7.208;2023-12-20T10:42:22;99567.03;;;20.50;38.52
4410;BME280;2218;51.408;7.208;2023-12-20T10:44:49;99563.22;;;20.54;38.29
4410;BME280;2218;51.408;7.208;2023-12-20T10:47:17;99553.00;;;20.61;38.06
4410;BME280;2218;51.408;7.208;2023-12-20T10:49:46;99558.06;;;20.64;37.97
4410;BME280;2218;51.408;7.208;2023-12-20T10:52:13;99557.09;;;20.65;38.11
4410;BME280;2218;51.408;7.208;2023-12-20T10:54:42;99546.41;;;20.67;38.19
4410;BME280;2218;51.408;7.208;2023-12-20T10:57:09;99551.47;;;20.70;37.96
4410;BME280;2218;51.408;7.208;2023-12-20T10:59:37;99555.78;;;20.71;37.84
4410;BME280;2218;51.408;7.208;2023-12-20T11:02:05;99552.53;;;20.67;37.16
4410;BME280;2218;51.408;7.208;2023-12-20T11:05:01;99559.63;;;20.67;36.89
4410;BME280;2218;51.408;7.208;2023-12-20T11:25:52;99555.91;;;20.80;37.33
4410;BME280;2218;51.408;7.208;2023-12-20T11:28:22;99554.72;;;20.84;37.39
4410;BME280;2218;51.408;7.208;2023-12-20T11:30:52;99545.81;;;20.85;37.26
4410;BME280;2218;51.408;7.208;2023-12-20T11:33:23;99545.59;;;20.88;37.32
4410;BME280;2218;51.408;7.208;2023-12-20T11:35:50;99536.69;;;20.89;37.28
4410;BME280;2218;51.408;7.208;2023-12-20T11:38:20;99534.75;;;20.91;37.50
4410;BME280;2218;51.408;7.208;2023-12-20T11:40:49;99528.50;;;20.92;37.62
4410;BME280;2218;51.408;7.208;2023-12-20T11:43:30;99526.34;;;20.98;37.79
4410;BME280;2218;51.408;7.208;2023-12-20T11:46:04;99530.69;;;20.99;37.94
4410;BME280;2218;51.408;7.208;2023-12-20T11:48:36;99523.69;;;20.98;37.51
4410;BME280;2218;51.408;7.208;2023-12-20T11:51:09;99536.91;;;20.98;37.60
4410;BME280;2218;51.408;7.208;2023-12-20T11:53:37;99526.25;;;20.99;37.88
4410;BME280;2218;51.408;7.208;2023-12-20T11:56:06;99533.06;;;21.02;37.63
4410;BME280;2218;51.408;7.208;2023-12-20T11:58:34;99526.81;;;21.03;37.89
4410;BME280;2218;51.408;7.208;2023-12-20T12:01:01;99537.38;;;21.03;37.38
4410;BME280;2218;51.408;7.208;2023-12-20T12:03:30;99523.25;;;21.04;37.52
4410;BME280;2218;51.408;7.208;2023-12-20T12:05:57;99514.34;;;21.05;37.88
4410;BME280;2218;51.408;7.208;2023-12-20T12:08:26;99509.75;;;21.07;37.45
4410;BME280;2218;51.408;7.208;2023-12-20T12:10:53;99507.84;;;21.09;37.56
4410;BME280;2218;51.408;7.208;2023-12-20T12:13:22;99511.34;;;21.09;37.92
4410;BME280;2218;51.408;7.208;2023-12-20T12:15:53;99504.25;;;21.10;37.90
4410;BME280;2218;51.408;7.208;2023-12-20T12:18:20;99498.84;;;21.11;37.86
4410;BME280;2218;51.408;7.208;2023-12-20T12:20:47;99487.06;;;21.15;37.98
4410;BME280;2218;51.408;7.208;2023-12-20T12:23:14;99487.91;;;21.16;37.85
4410;BME280;2218;51.408;7.208;2023-12-20T12:25:50;99483.44;;;21.16;38.34
4410;BME280;2218;51.408;7.208;2023-12-20T12:28:17;99492.94;;;21.19;38.17
4410;BME280;2218;51.408;7.208;2023-12-20T12:30:57;99496.41;;;21.20;38.28
4410;BME280;2218;51.408;7.208;2023-12-20T12:33:24;99498.09;;;21.21;38.18
4410;BME280;2218;51.408;7.208;2023-12-20T12:35:52;99491.00;;;21.21;38.52
4410;BME280;2218;51.408;7.208;2023-12-20T12:38:20;99493.66;;;21.21;38.66
4410;BME280;2218;51.408;7.208;2023-12-20T12:40:48;99487.53;;;21.21;38.76
4410;BME280;2218;51.408;7.208;2023-12-20T12:43:15;99493.66;;;21.21;38.48
4410;BME280;2218;51.408;7.208;2023-12-20T12:45:42;99482.75;;;21.14;37.28
4410;BME280;2218;51.408;7.208;2023-12-20T12:48:11;99484.06;;;21.09;37.36
4410;BME280;2218;51.408;7.208;2023-12-20T12:50:37;99483.34;;;21.07;37.37
4410;BME280;2218;51.408;7.208;2023-12-20T12:53:04;99471.22;;;21.04;37.04
4410;BME280;2218;51.408;7.208;2023-12-20T12:55:32;99475.41;;;21.07;37.41
4410;BME280;2218;51.408;7.208;2023-12-20T12:57:59;99466.78;;;21.05;37.42
4410;BME280;2218;51.408;7.208;2023-12-20T13:00:26;99465.31;;;21.12;38.07
4410;BME280;2218;51.408;7.208;2023-12-20T13:02:53;99475.50;;;21.16;37.95
4410;BME280;2218;51.408;7.208;2023-12-20T13:05:21;99451.59;;;21.18;38.06
4410;BME280;2218;51.408;7.208;2023-12-20T13:07:48;99456.66;;;21.21;38.11
4410;BME280;2218;51.408;7.208;2023-12-20T13:10:16;99450.38;;;21.22;38.35
4410;BME280;2218;51.408;7.208;2023-12-20T13:12:43;99438.97;;;21.22;38.51
4410;BME280;2218;51.408;7.208;2023-12-20T13:15:10;99429.25;;;21.22;38.63
4410;BME280;2218;51.408;7.208;2023-12-20T13:17:37;99430.47;;;21.18;38.20
4410;BME280;2218;51.408;7.208;2023-12-20T13:20:07;99424.72;;;21.13;37.97
4410;BME280;2218;51.408;7.208;2023-12-20T13:22:35;99420.53;;;21.10;37.53
4410;BME280;2218;51.408;7.208;2023-12-20T13:25:03;99413.69;;;21.08;37.31
4410;BME280;2218;51.408;7.208;2023-12-20T13:27:30;99421.13;;;21.14;38.31
4410;BME280;2218;51.408;7.208;2023-12-20T13:29:58;99419.78;;;21.20;38.12
4410;BME280;2218;51.408;7.208;2023-12-20T13:32:26;99410.75;;;21.22;38.50
4410;BME280;2218;51.408;7.208;2023-12-20T13:34:53;99400.91;;;21.24;38.37
4410;BME280;2218;51.408;7.208;2023-12-20T13:37:20;99405.22;;;21.25;38.70
4410;BME280;2218;51.408;7.208;2023-12-20T13:39:48;99403.41;;;21.26;38.80
4410;BME280;2218;51.408;7.208;2023-12-20T13:42:15;99411.22;;;21.27;38.79
4410;BME280;2218;51.408;7.208;2023-12-20T13:44:42;99414.81;;;21.26;38.75